SWA794 KBNA-KSAV
Flight info
| Callsign | SWA794 |
|---|---|
| Flight time | 1h 15m |
| Altitude | 41000 |
| Route | TIPPN4 DENST THRSR WIGVO LOTTS |
| Aircraft | B38M/M-SADE2E3GHIJ4J7P2RWZ/LB1D1 |
Departure
| Time | 2026-04-26 18:40 |
|---|---|
| Airport | Nashville International Airport (KBNA) |
Arrival
| Time | 2026-04-26 19:55 |
|---|---|
| Airport | Savannah Hilton Head International Airport (KSAV) |
| Time | Latitude | Longitude | Altitude | Speed | Heading |
|---|---|---|---|---|---|
| 2026-04-26 18:25 | 36.12876 | -86.66688 | 577 ft | 0 kts | 41° |
| 2026-04-26 18:31 | 36.12870 | -86.66694 | 583 ft | 3 kts | 41° |
| 2026-04-26 18:31 | 36.12857 | -86.66709 | 580 ft | 3 kts | 41° |
| 2026-04-26 18:31 | 36.12843 | -86.66724 | 579 ft | 3 kts | 41° |
| 2026-04-26 18:32 | 36.12833 | -86.66735 | 577 ft | 0 kts | 41° |
| 2026-04-26 18:34 | 36.12835 | -86.66732 | 577 ft | 1 kts | 53° |
| 2026-04-26 18:35 | 36.12828 | -86.66720 | 577 ft | 4 kts | 148° |
| 2026-04-26 18:35 | 36.12787 | -86.66729 | 580 ft | 8 kts | 193° |
| 2026-04-26 18:35 | 36.12731 | -86.66763 | 577 ft | 11 kts | 216° |
| 2026-04-26 18:35 | 36.12655 | -86.66836 | 582 ft | 17 kts | 213° |
| 2026-04-26 18:36 | 36.12535 | -86.66919 | 577 ft | 22 kts | 209° |
| 2026-04-26 18:36 | 36.12393 | -86.66993 | 580 ft | 22 kts | 163° |
| 2026-04-26 18:36 | 36.12292 | -86.66851 | 577 ft | 23 kts | 112° |
| 2026-04-26 18:36 | 36.12238 | -86.66654 | 580 ft | 25 kts | 107° |
| 2026-04-26 18:37 | 36.12164 | -86.66556 | 580 ft | 17 kts | 188° |
| 2026-04-26 18:37 | 36.12047 | -86.66600 | 577 ft | 19 kts | 198° |
| 2026-04-26 18:37 | 36.11917 | -86.66652 | 582 ft | 21 kts | 197° |
| 2026-04-26 18:37 | 36.11774 | -86.66710 | 579 ft | 23 kts | 199° |
| 2026-04-26 18:38 | 36.11618 | -86.66773 | 583 ft | 25 kts | 197° |
| 2026-04-26 18:38 | 36.11449 | -86.66840 | 580 ft | 26 kts | 197° |
| 2026-04-26 18:38 | 36.11322 | -86.66876 | 577 ft | 10 kts | 153° |
| 2026-04-26 18:38 | 36.11291 | -86.66792 | 579 ft | 12 kts | 97° |
| 2026-04-26 18:39 | 36.11369 | -86.66730 | 580 ft | 32 kts | 18° |
| 2026-04-26 18:39 | 36.11834 | -86.66542 | 579 ft | 106 kts | 17° |
| 2026-04-26 18:39 | 36.12717 | -86.66193 | 619 ft | 157 kts | 17° |
| 2026-04-26 18:39 | 36.13823 | -86.65805 | 1092 ft | 175 kts | 18° |
| 2026-04-26 18:40 | 36.14880 | -86.65106 | 1876 ft | 175 kts | 42° |
| 2026-04-26 18:40 | 36.15793 | -86.64008 | 2338 ft | 192 kts | 48° |
| 2026-04-26 18:40 | 36.16782 | -86.62730 | 2837 ft | 219 kts | 47° |
| 2026-04-26 18:40 | 36.17902 | -86.61298 | 3419 ft | 242 kts | 47° |
| 2026-04-26 18:41 | 36.19126 | -86.59755 | 4148 ft | 260 kts | 46° |
| 2026-04-26 18:41 | 36.20407 | -86.58131 | 5071 ft | 263 kts | 47° |
| 2026-04-26 18:41 | 36.21603 | -86.56404 | 6004 ft | 267 kts | 61° |
| 2026-04-26 18:41 | 36.22170 | -86.54221 | 6444 ft | 269 kts | 87° |
| 2026-04-26 18:42 | 36.21896 | -86.51950 | 6609 ft | 269 kts | 108° |
| 2026-04-26 18:42 | 36.21340 | -86.49725 | 6774 ft | 270 kts | 106° |
| 2026-04-26 18:42 | 36.20801 | -86.47497 | 6910 ft | 271 kts | 107° |
| 2026-04-26 18:42 | 36.20023 | -86.45382 | 7503 ft | 269 kts | 128° |
| 2026-04-26 18:43 | 36.18583 | -86.43908 | 8469 ft | 274 kts | 152° |
| 2026-04-26 18:43 | 36.16734 | -86.43295 | 9375 ft | 280 kts | 175° |
| 2026-04-26 18:43 | 36.14767 | -86.43322 | 10213 ft | 286 kts | 178° |
| 2026-04-26 18:43 | 36.12716 | -86.43383 | 10679 ft | 304 kts | 179° |
| 2026-04-26 18:44 | 36.10532 | -86.43464 | 11111 ft | 323 kts | 180° |
| 2026-04-26 18:44 | 36.08241 | -86.43561 | 11671 ft | 336 kts | 180° |
| 2026-04-26 18:44 | 36.05893 | -86.43667 | 12482 ft | 339 kts | 180° |
| 2026-04-26 18:44 | 36.03546 | -86.43775 | 13293 ft | 345 kts | 181° |
| 2026-04-26 18:45 | 36.01121 | -86.43889 | 14068 ft | 351 kts | 182° |
| 2026-04-26 18:45 | 35.98667 | -86.44003 | 14832 ft | 355 kts | 182° |
| 2026-04-26 18:45 | 35.96180 | -86.44118 | 15618 ft | 360 kts | 183° |
| 2026-04-26 18:45 | 35.93657 | -86.44234 | 16327 ft | 365 kts | 183° |
| 2026-04-26 18:46 | 35.91102 | -86.44351 | 17088 ft | 369 kts | 184° |
| 2026-04-26 18:46 | 35.88518 | -86.44470 | 17823 ft | 374 kts | 184° |
| 2026-04-26 18:46 | 35.85899 | -86.44592 | 18519 ft | 378 kts | 184° |
| 2026-04-26 18:46 | 35.83256 | -86.44713 | 19131 ft | 383 kts | 184° |
| 2026-04-26 18:47 | 35.80574 | -86.44837 | 19715 ft | 388 kts | 184° |
| 2026-04-26 18:47 | 35.77854 | -86.44962 | 20304 ft | 394 kts | 184° |
| 2026-04-26 18:47 | 35.75096 | -86.45089 | 20859 ft | 399 kts | 184° |
| 2026-04-26 18:47 | 35.72308 | -86.45218 | 21435 ft | 404 kts | 185° |
| 2026-04-26 18:48 | 35.69483 | -86.45348 | 21988 ft | 408 kts | 185° |
| 2026-04-26 18:48 | 35.66626 | -86.45479 | 22545 ft | 413 kts | 185° |
| 2026-04-26 18:48 | 35.63733 | -86.45612 | 23090 ft | 418 kts | 185° |
| 2026-04-26 18:48 | 35.60806 | -86.45740 | 23617 ft | 423 kts | 183° |
| 2026-04-26 18:49 | 35.57860 | -86.45306 | 24086 ft | 431 kts | 167° |
| 2026-04-26 18:49 | 35.54949 | -86.44383 | 24564 ft | 434 kts | 168° |
| 2026-04-26 18:49 | 35.52004 | -86.43475 | 25007 ft | 438 kts | 168° |
| 2026-04-26 18:49 | 35.49079 | -86.42557 | 25474 ft | 441 kts | 168° |
| 2026-04-26 18:50 | 35.46094 | -86.41613 | 25923 ft | 445 kts | 168° |
| 2026-04-26 18:50 | 35.43050 | -86.40649 | 26384 ft | 448 kts | 168° |
| 2026-04-26 18:50 | 35.40087 | -86.39589 | 26808 ft | 454 kts | 160° |
| 2026-04-26 18:50 | 35.37325 | -86.37650 | 27274 ft | 459 kts | 143° |
| 2026-04-26 18:51 | 35.34874 | -86.35113 | 27668 ft | 464 kts | 140° |
| 2026-04-26 18:51 | 35.32419 | -86.32518 | 28047 ft | 468 kts | 140° |
| 2026-04-26 18:51 | 35.29959 | -86.29887 | 28473 ft | 471 kts | 140° |
| 2026-04-26 18:51 | 35.27495 | -86.27231 | 28861 ft | 475 kts | 140° |
| 2026-04-26 18:52 | 35.25005 | -86.24542 | 29243 ft | 478 kts | 140° |
| 2026-04-26 18:52 | 35.22531 | -86.21871 | 29622 ft | 481 kts | 140° |
| 2026-04-26 18:52 | 35.19984 | -86.19122 | 30008 ft | 484 kts | 140° |
| 2026-04-26 18:52 | 35.17480 | -86.16423 | 30312 ft | 488 kts | 140° |
| 2026-04-26 18:53 | 35.14927 | -86.13672 | 30633 ft | 491 kts | 140° |
| 2026-04-26 18:53 | 35.12353 | -86.10903 | 30936 ft | 494 kts | 140° |
| 2026-04-26 18:53 | 35.09763 | -86.08118 | 31225 ft | 498 kts | 140° |
| 2026-04-26 18:53 | 35.07155 | -86.05315 | 31514 ft | 501 kts | 140° |
| 2026-04-26 18:54 | 35.04528 | -86.02495 | 31780 ft | 504 kts | 140° |
| 2026-04-26 18:54 | 35.01888 | -85.99664 | 32055 ft | 508 kts | 140° |
| 2026-04-26 18:54 | 34.99223 | -85.96809 | 32340 ft | 511 kts | 141° |
| 2026-04-26 18:54 | 34.96545 | -85.93940 | 32601 ft | 514 kts | 141° |
| 2026-04-26 18:55 | 34.93844 | -85.91051 | 32875 ft | 517 kts | 141° |
| 2026-04-26 18:55 | 34.91139 | -85.88161 | 33214 ft | 519 kts | 141° |
| 2026-04-26 18:55 | 34.88428 | -85.85267 | 33582 ft | 519 kts | 141° |
| 2026-04-26 18:55 | 34.85702 | -85.82360 | 33939 ft | 521 kts | 141° |
| 2026-04-26 18:56 | 34.82971 | -85.79449 | 34241 ft | 522 kts | 141° |
| 2026-04-26 18:56 | 34.80243 | -85.76542 | 34571 ft | 522 kts | 141° |
| 2026-04-26 18:56 | 34.77515 | -85.73600 | 34866 ft | 524 kts | 139° |
| 2026-04-26 18:56 | 34.74892 | -85.70523 | 35198 ft | 524 kts | 138° |
| 2026-04-26 18:57 | 34.72254 | -85.67451 | 35523 ft | 524 kts | 139° |
| 2026-04-26 18:57 | 34.70501 | -85.65423 | 35733 ft | 524 kts | 139° |
| 2026-04-26 18:57 | 34.67004 | -85.61387 | 36144 ft | 524 kts | 139° |
| 2026-04-26 18:57 | 34.64362 | -85.58343 | 36463 ft | 523 kts | 139° |
| 2026-04-26 18:58 | 34.61717 | -85.55298 | 36770 ft | 523 kts | 139° |
| 2026-04-26 18:58 | 34.59077 | -85.52261 | 37046 ft | 523 kts | 139° |
| 2026-04-26 18:58 | 34.56429 | -85.49219 | 37326 ft | 523 kts | 139° |
| 2026-04-26 18:58 | 34.53789 | -85.46186 | 37601 ft | 523 kts | 139° |
| 2026-04-26 18:59 | 34.51147 | -85.43155 | 37898 ft | 523 kts | 139° |
| 2026-04-26 18:59 | 34.48503 | -85.40126 | 38142 ft | 523 kts | 139° |
| 2026-04-26 18:59 | 34.45860 | -85.37100 | 38398 ft | 523 kts | 139° |
| 2026-04-26 18:59 | 34.43209 | -85.34066 | 38643 ft | 523 kts | 139° |
| 2026-04-26 19:00 | 34.40567 | -85.31047 | 38854 ft | 523 kts | 139° |
| 2026-04-26 19:00 | 34.37925 | -85.28031 | 39080 ft | 522 kts | 139° |
| 2026-04-26 19:00 | 34.35286 | -85.25020 | 39281 ft | 521 kts | 139° |
| 2026-04-26 19:00 | 34.32676 | -85.22045 | 39492 ft | 519 kts | 138° |
| 2026-04-26 19:01 | 34.30015 | -85.19015 | 39681 ft | 519 kts | 139° |
| 2026-04-26 19:01 | 34.27426 | -85.16069 | 39857 ft | 518 kts | 138° |
| 2026-04-26 19:01 | 34.24803 | -85.13088 | 40027 ft | 517 kts | 139° |
| 2026-04-26 19:01 | 34.22182 | -85.10111 | 40192 ft | 516 kts | 139° |
| 2026-04-26 19:02 | 34.19570 | -85.07147 | 40356 ft | 515 kts | 138° |
| 2026-04-26 19:02 | 34.16957 | -85.04185 | 40523 ft | 514 kts | 138° |
| 2026-04-26 19:02 | 34.14351 | -85.01234 | 40666 ft | 514 kts | 138° |
| 2026-04-26 19:02 | 34.12621 | -84.99275 | 40760 ft | 513 kts | 138° |
| 2026-04-26 19:03 | 34.09145 | -84.95344 | 40956 ft | 512 kts | 138° |
| 2026-04-26 19:03 | 34.06545 | -84.92407 | 41033 ft | 512 kts | 138° |
| 2026-04-26 19:03 | 34.01353 | -84.86549 | 41003 ft | 510 kts | 139° |
| 2026-04-26 19:04 | 33.96173 | -84.80716 | 41002 ft | 510 kts | 139° |
| 2026-04-26 19:04 | 33.90976 | -84.74875 | 40995 ft | 510 kts | 139° |
| 2026-04-26 19:05 | 33.83192 | -84.66142 | 40984 ft | 510 kts | 139° |
| 2026-04-26 19:06 | 33.78031 | -84.60366 | 40996 ft | 510 kts | 139° |
| 2026-04-26 19:06 | 33.72847 | -84.54572 | 40988 ft | 509 kts | 139° |
| 2026-04-26 19:07 | 33.67655 | -84.48778 | 40983 ft | 509 kts | 139° |
| 2026-04-26 19:07 | 33.62713 | -84.42702 | 40960 ft | 509 kts | 122° |
| 2026-04-26 19:08 | 33.59123 | -84.35400 | 40982 ft | 509 kts | 119° |
| 2026-04-26 19:08 | 33.55581 | -84.28022 | 40989 ft | 510 kts | 119° |
| 2026-04-26 19:09 | 33.52065 | -84.20637 | 40995 ft | 510 kts | 119° |
| 2026-04-26 19:09 | 33.48546 | -84.13255 | 40993 ft | 509 kts | 119° |
| 2026-04-26 19:10 | 33.45049 | -84.05935 | 40985 ft | 509 kts | 119° |
| 2026-04-26 19:10 | 33.41522 | -83.98567 | 40962 ft | 509 kts | 119° |
| 2026-04-26 19:11 | 33.37999 | -83.91223 | 40963 ft | 509 kts | 119° |
| 2026-04-26 19:11 | 33.35070 | -83.85128 | 40964 ft | 508 kts | 119° |
| 2026-04-26 19:12 | 33.31538 | -83.77792 | 40962 ft | 508 kts | 119° |
| 2026-04-26 19:12 | 33.28007 | -83.70473 | 40957 ft | 508 kts | 119° |
| 2026-04-26 19:13 | 33.24475 | -83.63168 | 40952 ft | 508 kts | 119° |
| 2026-04-26 19:13 | 33.20936 | -83.55861 | 40954 ft | 508 kts | 119° |
| 2026-04-26 19:14 | 33.17396 | -83.48568 | 40951 ft | 507 kts | 120° |
| 2026-04-26 19:14 | 33.13850 | -83.41277 | 40957 ft | 507 kts | 120° |
| 2026-04-26 19:15 | 33.10305 | -83.34003 | 40960 ft | 507 kts | 120° |
| 2026-04-26 19:15 | 33.06778 | -83.26780 | 40960 ft | 507 kts | 120° |
| 2026-04-26 19:16 | 33.03225 | -83.19518 | 40958 ft | 507 kts | 120° |
| 2026-04-26 19:16 | 32.99670 | -83.12266 | 40951 ft | 507 kts | 120° |
| 2026-04-26 19:17 | 32.96112 | -83.05022 | 40949 ft | 507 kts | 120° |
| 2026-04-26 19:17 | 32.92546 | -82.97778 | 40942 ft | 506 kts | 120° |
| 2026-04-26 19:18 | 32.88975 | -82.90536 | 40933 ft | 508 kts | 120° |
| 2026-04-26 19:18 | 32.85387 | -82.83275 | 40937 ft | 510 kts | 120° |
| 2026-04-26 19:19 | 32.81786 | -82.76003 | 40936 ft | 510 kts | 120° |
| 2026-04-26 19:19 | 32.78210 | -82.68794 | 40933 ft | 510 kts | 120° |
| 2026-04-26 19:20 | 32.74607 | -82.61545 | 40932 ft | 510 kts | 121° |
| 2026-04-26 19:20 | 32.70993 | -82.54288 | 40933 ft | 510 kts | 121° |
| 2026-04-26 19:21 | 32.67484 | -82.47257 | 40930 ft | 510 kts | 121° |
| 2026-04-26 19:21 | 32.63863 | -82.40016 | 40929 ft | 510 kts | 121° |
| 2026-04-26 19:22 | 32.60239 | -82.32780 | 40930 ft | 510 kts | 121° |
| 2026-04-26 19:22 | 32.56608 | -82.25545 | 40927 ft | 510 kts | 121° |
| 2026-04-26 19:23 | 32.52973 | -82.18315 | 40924 ft | 510 kts | 121° |
| 2026-04-26 19:23 | 32.49336 | -82.11093 | 40926 ft | 510 kts | 121° |
| 2026-04-26 19:24 | 32.45648 | -82.03915 | 40918 ft | 510 kts | 127° |
| 2026-04-26 19:24 | 32.39217 | -81.93984 | 40922 ft | 509 kts | 129° |
| 2026-04-26 19:25 | 32.35578 | -81.88437 | 40917 ft | 509 kts | 129° |
| 2026-04-26 19:25 | 32.30516 | -81.80769 | 40916 ft | 509 kts | 129° |
| 2026-04-26 19:26 | 32.26155 | -81.74189 | 40914 ft | 508 kts | 129° |
| 2026-04-26 19:26 | 32.21794 | -81.67605 | 40915 ft | 508 kts | 129° |
| 2026-04-26 19:27 | 32.17936 | -81.61779 | 40905 ft | 508 kts | 129° |
| 2026-04-26 19:27 | 32.13587 | -81.55207 | 40912 ft | 508 kts | 129° |
| 2026-04-26 19:28 | 32.09240 | -81.48637 | 40915 ft | 508 kts | 129° |
| 2026-04-26 19:28 | 32.04894 | -81.42065 | 40914 ft | 508 kts | 129° |
| 2026-04-26 19:29 | 32.00557 | -81.35504 | 40926 ft | 507 kts | 129° |
| 2026-04-26 19:29 | 31.96251 | -81.28990 | 40888 ft | 507 kts | 129° |
| 2026-04-26 19:30 | 31.91920 | -81.22438 | 40890 ft | 507 kts | 129° |
| 2026-04-26 19:30 | 31.88292 | -81.16948 | 40882 ft | 506 kts | 128° |
| 2026-04-26 19:31 | 31.83273 | -81.09342 | 40895 ft | 506 kts | 128° |
| 2026-04-26 19:31 | 31.78963 | -81.02794 | 40898 ft | 506 kts | 128° |
| 2026-04-26 19:32 | 31.74661 | -80.96244 | 40904 ft | 506 kts | 128° |
| 2026-04-26 19:32 | 31.70369 | -80.89693 | 40906 ft | 506 kts | 128° |
| 2026-04-26 19:33 | 31.66081 | -80.83137 | 40923 ft | 506 kts | 128° |
| 2026-04-26 19:33 | 31.61793 | -80.76572 | 40926 ft | 507 kts | 128° |
| 2026-04-26 19:34 | 31.57501 | -80.69992 | 40922 ft | 507 kts | 128° |
| 2026-04-26 19:34 | 31.53222 | -80.63425 | 40909 ft | 507 kts | 128° |
| 2026-04-26 19:35 | 31.48974 | -80.56897 | 40926 ft | 507 kts | 128° |
| 2026-04-26 19:35 | 31.45063 | -80.50061 | 40899 ft | 504 kts | 111° |
| 2026-04-26 19:36 | 31.44063 | -80.46183 | 40388 ft | 496 kts | 95° |
| 2026-04-26 19:36 | 31.43879 | -80.43477 | 39951 ft | 489 kts | 83° |
| 2026-04-26 19:36 | 31.44712 | -80.38457 | 39366 ft | 464 kts | 60° |
| 2026-04-26 19:36 | 31.46249 | -80.35249 | 38937 ft | 442 kts | 43° |
| 2026-04-26 19:37 | 31.48392 | -80.32818 | 38520 ft | 417 kts | 25° |
| 2026-04-26 19:37 | 31.50899 | -80.31345 | 38009 ft | 394 kts | 8° |
| 2026-04-26 19:37 | 31.53525 | -80.30875 | 37248 ft | 373 kts | 351° |
| 2026-04-26 19:37 | 31.56002 | -80.31431 | 36437 ft | 356 kts | 332° |
| 2026-04-26 19:38 | 31.58063 | -80.32919 | 35684 ft | 344 kts | 314° |
| 2026-04-26 19:38 | 31.59485 | -80.35123 | 34893 ft | 340 kts | 297° |
| 2026-04-26 19:38 | 31.60421 | -80.37700 | 33808 ft | 348 kts | 292° |
| 2026-04-26 19:38 | 31.61313 | -80.40372 | 32491 ft | 357 kts | 292° |
| 2026-04-26 19:39 | 31.62254 | -80.43107 | 31280 ft | 364 kts | 292° |
| 2026-04-26 19:39 | 31.63233 | -80.45855 | 30338 ft | 366 kts | 292° |
| 2026-04-26 19:39 | 31.64217 | -80.48541 | 29437 ft | 365 kts | 292° |
| 2026-04-26 19:39 | 31.65228 | -80.51263 | 28533 ft | 362 kts | 292° |
| 2026-04-26 19:40 | 31.66231 | -80.53959 | 27742 ft | 358 kts | 292° |
| 2026-04-26 19:40 | 31.67226 | -80.56627 | 26944 ft | 355 kts | 292° |
| 2026-04-26 19:40 | 31.68213 | -80.59269 | 26177 ft | 352 kts | 292° |
| 2026-04-26 19:40 | 31.69193 | -80.61889 | 25443 ft | 349 kts | 292° |
| 2026-04-26 19:41 | 31.70157 | -80.64461 | 24739 ft | 347 kts | 292° |
| 2026-04-26 19:41 | 31.71128 | -80.67042 | 24044 ft | 345 kts | 292° |
| 2026-04-26 19:41 | 31.72096 | -80.69604 | 23344 ft | 343 kts | 292° |
| 2026-04-26 19:41 | 31.72748 | -80.71331 | 22812 ft | 341 kts | 292° |
| 2026-04-26 19:42 | 31.74004 | -80.74680 | 21876 ft | 336 kts | 292° |
| 2026-04-26 19:42 | 31.74933 | -80.77177 | 21193 ft | 332 kts | 292° |
| 2026-04-26 19:42 | 31.75846 | -80.79648 | 20524 ft | 328 kts | 292° |
| 2026-04-26 19:42 | 31.76746 | -80.82098 | 19870 ft | 324 kts | 292° |
| 2026-04-26 19:43 | 31.77627 | -80.84521 | 19238 ft | 321 kts | 292° |
| 2026-04-26 19:43 | 31.78494 | -80.86924 | 18613 ft | 318 kts | 292° |
| 2026-04-26 19:43 | 31.79347 | -80.89313 | 17971 ft | 315 kts | 292° |
| 2026-04-26 19:43 | 31.80261 | -80.91585 | 17272 ft | 312 kts | 300° |
| 2026-04-26 19:44 | 31.81428 | -80.93731 | 16555 ft | 311 kts | 302° |
| 2026-04-26 19:44 | 31.82615 | -80.95847 | 15850 ft | 309 kts | 302° |
| 2026-04-26 19:44 | 31.83791 | -80.97952 | 15198 ft | 307 kts | 302° |
| 2026-04-26 19:44 | 31.84960 | -81.00050 | 14538 ft | 306 kts | 302° |
| 2026-04-26 19:45 | 31.86122 | -81.02145 | 13897 ft | 305 kts | 302° |
| 2026-04-26 19:45 | 31.87272 | -81.04226 | 13282 ft | 302 kts | 302° |
| 2026-04-26 19:45 | 31.88385 | -81.06246 | 12843 ft | 293 kts | 302° |
| 2026-04-26 19:45 | 31.89476 | -81.08227 | 12493 ft | 284 kts | 302° |
| 2026-04-26 19:46 | 31.90530 | -81.10143 | 12103 ft | 275 kts | 302° |
| 2026-04-26 19:46 | 31.91563 | -81.12021 | 11587 ft | 272 kts | 302° |
| 2026-04-26 19:46 | 31.92588 | -81.13888 | 11075 ft | 270 kts | 302° |
| 2026-04-26 19:46 | 31.93601 | -81.15736 | 10567 ft | 267 kts | 302° |
| 2026-04-26 19:47 | 31.94602 | -81.17565 | 10072 ft | 265 kts | 302° |
| 2026-04-26 19:47 | 31.94939 | -81.18182 | 9906 ft | 264 kts | 302° |
| 2026-04-26 19:47 | 31.96576 | -81.21188 | 8987 ft | 261 kts | 302° |
| 2026-04-26 19:47 | 31.97547 | -81.22989 | 8446 ft | 260 kts | 302° |
| 2026-04-26 19:48 | 31.98513 | -81.24780 | 7943 ft | 257 kts | 302° |
| 2026-04-26 19:48 | 31.99472 | -81.26553 | 7419 ft | 256 kts | 302° |
| 2026-04-26 19:48 | 32.00420 | -81.28319 | 6942 ft | 254 kts | 302° |
| 2026-04-26 19:48 | 32.01361 | -81.30080 | 6465 ft | 253 kts | 303° |
| 2026-04-26 19:49 | 32.02294 | -81.31837 | 6036 ft | 252 kts | 302° |
| 2026-04-26 19:49 | 32.03225 | -81.33587 | 5535 ft | 252 kts | 303° |
| 2026-04-26 19:49 | 32.04151 | -81.35338 | 5066 ft | 251 kts | 303° |
| 2026-04-26 19:49 | 32.05069 | -81.37084 | 4559 ft | 250 kts | 302° |
| 2026-04-26 19:50 | 32.05975 | -81.38815 | 4165 ft | 244 kts | 303° |
| 2026-04-26 19:50 | 32.06845 | -81.40485 | 3903 ft | 235 kts | 303° |
| 2026-04-26 19:50 | 32.07678 | -81.42067 | 3667 ft | 225 kts | 303° |
| 2026-04-26 19:50 | 32.08676 | -81.43386 | 3512 ft | 210 kts | 329° |
| 2026-04-26 19:51 | 32.10031 | -81.43838 | 3169 ft | 203 kts | 2° |
| 2026-04-26 19:51 | 32.11337 | -81.43272 | 2794 ft | 203 kts | 38° |
| 2026-04-26 19:51 | 32.12214 | -81.41957 | 2653 ft | 207 kts | 56° |
| 2026-04-26 19:51 | 32.12864 | -81.40436 | 2535 ft | 209 kts | 70° |
| 2026-04-26 19:52 | 32.13088 | -81.38736 | 2507 ft | 211 kts | 86° |
| 2026-04-26 19:52 | 32.13047 | -81.36998 | 2445 ft | 213 kts | 91° |
| 2026-04-26 19:52 | 32.12994 | -81.35263 | 2178 ft | 207 kts | 89° |
| 2026-04-26 19:52 | 32.12973 | -81.33641 | 1951 ft | 186 kts | 88° |
| 2026-04-26 19:53 | 32.12962 | -81.32191 | 1723 ft | 170 kts | 88° |
| 2026-04-26 19:53 | 32.12954 | -81.30814 | 1501 ft | 166 kts | 88° |
| 2026-04-26 19:53 | 32.12942 | -81.29452 | 1297 ft | 166 kts | 89° |
| 2026-04-26 19:53 | 32.12931 | -81.28137 | 1118 ft | 160 kts | 88° |
| 2026-04-26 19:54 | 32.12917 | -81.26846 | 885 ft | 156 kts | 90° |
| 2026-04-26 19:54 | 32.12894 | -81.25598 | 626 ft | 149 kts | 88° |
| 2026-04-26 19:54 | 32.12895 | -81.24374 | 453 ft | 153 kts | 87° |
| 2026-04-26 19:54 | 32.12884 | -81.23152 | 276 ft | 145 kts | 86° |
| 2026-04-26 19:55 | 32.12872 | -81.21991 | 101 ft | 140 kts | 86° |
| 2026-04-26 19:55 | 32.12870 | -81.20890 | 45 ft | 115 kts | 89° |
| 2026-04-26 19:55 | 32.12863 | -81.20241 | 46 ft | 47 kts | 92° |
| 2026-04-26 19:55 | 32.12878 | -81.20023 | 42 ft | 19 kts | 39° |
| 2026-04-26 19:56 | 32.13021 | -81.20011 | 47 ft | 24 kts | 359° |
| 2026-04-26 19:56 | 32.13194 | -81.20012 | 49 ft | 26 kts | 0° |
| 2026-04-26 19:56 | 32.13377 | -81.20010 | 51 ft | 27 kts | 1° |
| 2026-04-26 19:56 | 32.13545 | -81.20024 | 51 ft | 21 kts | 329° |
| 2026-04-26 19:57 | 32.13571 | -81.20180 | 56 ft | 21 kts | 269° |
| 2026-04-26 19:57 | 32.13579 | -81.20322 | 54 ft | 9 kts | 316° |
| 2026-04-26 19:57 | 32.13646 | -81.20335 | 52 ft | 11 kts | 342° |
| 2026-04-26 19:57 | 32.13670 | -81.20418 | 50 ft | 13 kts | 270° |
| 2026-04-26 19:58 | 32.13671 | -81.20535 | 56 ft | 16 kts | 270° |
| 2026-04-26 19:58 | 32.13671 | -81.20663 | 53 ft | 15 kts | 270° |
| 2026-04-26 19:58 | 32.13672 | -81.20743 | 52 ft | 14 kts | 271° |
| 2026-04-26 19:58 | 32.13673 | -81.20850 | 56 ft | 8 kts | 262° |
| 2026-04-26 19:59 | 32.13647 | -81.20897 | 54 ft | 6 kts | 197° |
| 2026-04-26 19:59 | 32.13612 | -81.20899 | 53 ft | 0 kts | 180° |
| 2026-04-26 19:59 | 32.13610 | -81.20899 | 56 ft | 0 kts | 180° |